Time;durP1;ratioP1;P1;durP2;ratioP2;P2;SDS_P1;SDS_P2;PMS_P1;PMS_P2;Temp;Humidity;BMP_temperature;BMP_pressure;BME280_temperature;BME280_humidity;BME280_pressure;Samples;Min_cycle;Max_cycle;Signal;HPM_P1;HPM_P2
2023/12/15 00:02:22;;;;;;;27.45;11.30;;;;;;;5.24;100.00;102609.47;5066686;28;20479;-55
2023/12/15 00:04:47;;;;;;;27.73;12.40;;;;;;;5.22;100.00;102617.06;5055465;28;20060;-55
2023/12/15 00:07:12;;;;;;;25.77;10.88;;;;;;;5.22;100.00;102620.69;5067628;28;20119;-56
2023/12/15 00:09:38;;;;;;;26.10;10.95;;;;;;;5.20;100.00;102617.31;5065325;28;20055;-55
2023/12/15 00:12:03;;;;;;;28.58;11.65;;;;;;;5.20;100.00;102628.28;5051122;28;20502;-58
2023/12/15 00:14:29;;;;;;;26.25;11.75;;;;;;;5.25;100.00;102644.06;5059845;28;20029;-55
2023/12/15 00:16:54;;;;;;;27.73;11.27;;;;;;;5.23;100.00;102649.78;5055736;28;20047;-56
2023/12/15 00:19:19;;;;;;;26.83;11.63;;;;;;;5.23;100.00;102647.06;5050653;28;20025;-55
2023/12/15 00:21:44;;;;;;;27.58;12.23;;;;;;;5.22;100.00;102650.88;5054614;28;20028;-55
2023/12/15 00:24:10;;;;;;;27.02;11.90;;;;;;;5.25;100.00;102652.31;5054488;28;20179;-56
2023/12/15 00:26:35;;;;;;;27.45;12.00;;;;;;;5.24;100.00;102662.44;5050648;28;20021;-56
2023/12/15 00:29:03;;;;;;;28.92;12.50;;;;;;;5.24;100.00;102662.44;5052950;28;20109;-56
2023/12/15 00:31:29;;;;;;;27.83;12.70;;;;;;;5.23;100.00;102655.28;5066224;28;20389;-56
2023/12/15 00:33:54;;;;;;;29.33;13.38;;;;;;;5.21;100.00;102649.19;5065443;28;20033;-57
2023/12/15 00:36:19;;;;;;;28.90;12.70;;;;;;;5.22;100.00;102642.63;5058087;28;20036;-56
2023/12/15 00:38:44;;;;;;;31.00;13.55;;;;;;;5.22;100.00;102650.00;5038739;28;20393;-56
2023/12/15 00:41:10;;;;;;;29.30;12.88;;;;;;;5.21;100.00;102651.06;5052514;28;20029;-56
2023/12/15 00:43:35;;;;;;;32.58;13.93;;;;;;;5.19;100.00;102658.72;5057987;28;20107;-56
2023/12/15 00:46:00;;;;;;;30.80;14.68;;;;;;;5.18;100.00;102655.09;5065415;28;20032;-57
2023/12/15 00:48:26;;;;;;;31.08;13.80;;;;;;;5.17;100.00;102667.13;5058196;28;20051;-57
2023/12/15 00:50:52;;;;;;;27.65;13.38;;;;;;;5.17;100.00;102661.66;5050374;28;20032;-56
2023/12/15 00:53:17;;;;;;;32.00;13.90;;;;;;;5.15;100.00;102655.53;5053252;28;20022;-57
2023/12/15 00:55:42;;;;;;;29.42;13.98;;;;;;;5.12;100.00;102645.88;5036202;28;20045;-56
2023/12/15 00:58:08;;;;;;;29.70;13.18;;;;;;;5.20;100.00;102661.22;5052154;28;20100;-56
2023/12/15 01:00:33;;;;;;;31.85;13.63;;;;;;;5.21;100.00;102659.28;5056540;28;20033;-57
2023/12/15 01:02:58;;;;;;;30.65;14.57;;;;;;;5.18;100.00;102665.25;5060689;28;20021;-57
2023/12/15 01:05:23;;;;;;;31.25;15.02;;;;;;;5.21;100.00;102678.50;5056489;28;20033;-57
2023/12/15 01:07:49;;;;;;;32.95;14.68;;;;;;;5.23;100.00;102679.13;5060459;28;20025;-56
2023/12/15 01:10:14;;;;;;;31.58;15.07;;;;;;;5.27;100.00;102683.94;5073594;28;20043;-56
2023/12/15 01:12:39;;;;;;;31.90;15.38;;;;;;;5.29;100.00;102686.47;5065224;28;20032;-56
2023/12/15 01:15:05;;;;;;;32.33;15.57;;;;;;;5.33;100.00;102682.19;5068042;28;20037;-56
2023/12/15 01:17:30;;;;;;;32.75;16.05;;;;;;;5.32;100.00;102686.00;5054436;28;20040;-56
2023/12/15 01:19:56;;;;;;;34.67;16.05;;;;;;;5.36;100.00;102683.66;5064946;28;20036;-56
2023/12/15 01:22:21;;;;;;;30.63;14.40;;;;;;;5.35;100.00;102682.81;5074155;28;20112;-56
2023/12/15 01:24:46;;;;;;;32.08;15.43;;;;;;;5.34;100.00;102688.56;5056063;28;20036;-57
2023/12/15 01:27:12;;;;;;;33.25;16.10;;;;;;;5.36;100.00;102694.63;5058215;28;20387;-56
2023/12/15 01:29:37;;;;;;;33.85;15.23;;;;;;;5.38;100.00;102700.75;5054202;28;20116;-57
2023/12/15 01:32:02;;;;;;;35.22;16.45;;;;;;;5.36;100.00;102697.38;5059212;28;20025;-57
2023/12/15 01:34:28;;;;;;;34.28;15.88;;;;;;;5.39;100.00;102700.50;5055092;28;20024;-56
2023/12/15 01:36:53;;;;;;;33.88;15.93;;;;;;;5.39;100.00;102705.16;5053878;28;20028;-57
2023/12/15 01:39:18;;;;;;;32.90;15.45;;;;;;;5.38;100.00;102695.25;5066420;28;20024;-56
2023/12/15 01:41:44;;;;;;;34.80;16.58;;;;;;;5.43;100.00;102700.91;5064090;28;20029;-57
2023/12/15 01:44:09;;;;;;;33.10;15.23;;;;;;;5.47;100.00;102704.88;5059716;28;20048;-57
2023/12/15 01:46:34;;;;;;;35.38;15.95;;;;;;;5.44;100.00;102710.81;5054299;28;20082;-56
2023/12/15 01:49:00;;;;;;;38.00;15.50;;;;;;;5.43;100.00;102707.22;5053953;28;20515;-56
2023/12/15 01:51:25;;;;;;;36.28;16.60;;;;;;;5.43;100.00;102706.41;5053868;28;20021;-57
2023/12/15 01:53:50;;;;;;;32.83;15.77;;;;;;;5.42;100.00;102711.03;5063674;28;20071;-58
2023/12/15 01:56:16;;;;;;;36.25;16.38;;;;;;;5.47;100.00;102705.72;5053486;28;20110;-57
2023/12/15 01:58:41;;;;;;;36.30;17.27;;;;;;;5.47;100.00;102722.19;5051842;28;20527;-57
2023/12/15 02:01:08;;;;;;;34.90;16.08;;;;;;;5.50;100.00;102720.03;5061792;28;20020;-58
2023/12/15 02:03:34;;;;;;;36.42;16.17;;;;;;;5.49;100.00;102721.97;5067211;28;20434;-57
2023/12/15 02:05:59;;;;;;;34.28;15.82;;;;;;;5.49;100.00;102721.09;5052956;28;20522;-57
2023/12/15 02:08:25;;;;;;;31.83;15.43;;;;;;;5.50;100.00;102728.28;5049726;28;20028;-57
2023/12/15 02:10:50;;;;;;;35.80;16.17;;;;;;;5.49;100.00;102730.19;5065708;28;20413;-57
2023/12/15 02:13:15;;;;;;;34.10;15.30;;;;;;;5.51;100.00;102729.97;5062445;28;20071;-57
2023/12/15 02:15:41;;;;;;;34.55;15.48;;;;;;;5.53;100.00;102727.84;5058626;28;20037;-57
2023/12/15 02:18:06;;;;;;;34.28;16.02;;;;;;;5.53;100.00;102730.59;5071055;28;20487;-57
2023/12/15 02:20:31;;;;;;;37.97;17.55;;;;;;;5.52;100.00;102729.75;5038310;28;20119;-57
2023/12/15 02:22:59;;;;;;;35.35;16.65;;;;;;;5.53;100.00;102733.34;5054457;28;20048;-57
2023/12/15 02:25:24;;;;;;;36.10;16.25;;;;;;;5.54;100.00;102733.09;5065786;28;20033;-57
2023/12/15 02:27:50;;;;;;;33.97;15.07;;;;;;;5.56;100.00;102735.63;5073033;28;20024;-57
2023/12/15 02:30:15;;;;;;;35.05;16.55;;;;;;;5.53;100.00;102747.88;5065778;28;20020;-57
2023/12/15 02:32:40;;;;;;;37.28;16.25;;;;;;;5.56;100.00;102757.59;5072826;28;20020;-57
2023/12/15 02:35:06;;;;;;;35.13;17.42;;;;;;;5.54;100.00;102754.22;5055701;28;20033;-57
2023/12/15 02:37:31;;;;;;;34.95;15.77;;;;;;;5.53;100.00;102761.63;5064302;28;20036;-57
2023/12/15 02:39:58;;;;;;;34.72;16.73;;;;;;;5.51;100.00;102763.78;5044509;28;20097;-57
2023/12/15 02:42:23;;;;;;;35.83;16.75;;;;;;;5.49;100.00;102763.16;5059174;28;20047;-57
2023/12/15 02:44:48;;;;;;;32.88;14.82;;;;;;;5.53;100.00;102766.28;5053224;28;20559;-57
2023/12/15 02:47:13;;;;;;;36.08;16.55;;;;;;;5.52;100.00;102770.94;5069421;28;20484;-57
2023/12/15 02:49:40;;;;;;;36.90;16.88;;;;;;;5.54;100.00;102776.19;5058985;28;20033;-57
2023/12/15 02:52:06;;;;;;;36.00;17.20;;;;;;;5.53;100.00;102778.09;5066061;28;20041;-57
2023/12/15 02:54:32;;;;;;;35.97;16.70;;;;;;;5.51;100.00;102780.25;5066831;28;20452;-57
2023/12/15 02:56:57;;;;;;;37.72;17.92;;;;;;;5.53;100.00;102782.75;5072398;28;20538;-57
2023/12/15 02:59:23;;;;;;;34.55;16.90;;;;;;;5.54;100.00;102787.19;5060482;28;20500;-57
2023/12/15 03:01:48;;;;;;;35.28;16.33;;;;;;;5.56;100.00;102788.63;5070201;28;20052;-57
2023/12/15 03:04:13;;;;;;;35.95;16.38;;;;;;;5.58;100.00;102793.88;5059001;28;20063;-57
2023/12/15 03:06:39;;;;;;;38.17;17.00;;;;;;;5.61;100.00;102797.06;5052096;28;20206;-56
2023/12/15 03:09:04;;;;;;;41.15;18.58;;;;;;;5.62;100.00;102790.47;5054693;28;20028;-56
2023/12/15 03:11:29;;;;;;;40.08;17.00;;;;;;;5.64;100.00;102795.75;5061432;28;20048;-57
2023/12/15 03:13:54;;;;;;;36.80;16.98;;;;;;;5.63;100.00;102799.56;5053189;28;20028;-57
2023/12/15 03:16:23;;;;;;;37.30;17.45;;;;;;;5.61;100.00;102799.78;5062961;28;20094;-57
2023/12/15 03:18:48;;;;;;;36.35;16.95;;;;;;;5.62;100.00;102806.13;5067685;28;20028;-56
2023/12/15 03:21:13;;;;;;;37.97;17.88;;;;;;;5.61;100.00;102802.53;5061421;28;20380;-56
2023/12/15 03:23:38;;;;;;;38.40;17.33;;;;;;;5.61;100.00;102807.19;5068990;28;20020;-57
2023/12/15 03:26:04;;;;;;;39.97;18.58;;;;;;;5.62;100.00;102822.59;5060891;28;20024;-56
2023/12/15 03:28:29;;;;;;;40.22;17.88;;;;;;;5.65;100.00;102826.78;5064231;28;20028;-57
2023/12/15 03:30:54;;;;;;;39.35;18.60;;;;;;;5.65;100.00;102822.16;5061853;28;20095;-56
2023/12/15 03:33:24;;;;;;;42.03;18.48;;;;;;;5.63;100.00;102818.78;5071543;28;20035;-57
2023/12/15 03:35:49;;;;;;;40.33;17.73;;;;;;;5.72;100.00;102844.03;5058048;28;20024;-57
2023/12/15 03:38:15;;;;;;;41.47;18.98;;;;;;;5.72;100.00;102841.28;5051487;28;20511;-57
2023/12/15 03:40:40;;;;;;;40.70;19.00;;;;;;;5.76;100.00;102848.84;5062704;28;20115;-57
2023/12/15 03:43:05;;;;;;;40.47;19.30;;;;;;;5.76;100.00;102848.03;5060899;28;20396;-57
2023/12/15 03:45:31;;;;;;;40.17;19.05;;;;;;;5.76;100.00;102853.53;5061996;28;20039;-57
2023/12/15 03:47:56;;;;;;;41.92;19.27;;;;;;;5.75;100.00;102849.94;5063966;28;20102;-57
2023/12/15 03:50:21;;;;;;;43.53;19.48;;;;;;;5.75;100.00;102857.34;5065524;28;20455;-57
2023/12/15 03:52:47;;;;;;;40.38;19.88;;;;;;;5.75;100.00;102852.69;5052099;28;20021;-57
2023/12/15 03:55:12;;;;;;;44.22;20.90;;;;;;;5.75;100.00;102857.34;5054602;28;20407;-57
2023/12/15 03:57:38;;;;;;;40.45;19.42;;;;;;;5.78;100.00;102852.22;5066544;28;20483;-57
2023/12/15 04:00:04;;;;;;;39.22;18.63;;;;;;;5.77;100.00;102857.97;5059228;28;20052;-57
2023/12/15 04:02:30;;;;;;;44.80;20.08;;;;;;;5.80;100.00;102862.16;5067691;28;20040;-57
2023/12/15 04:04:55;;;;;;;45.53;20.50;;;;;;;5.81;100.00;102869.34;5066648;28;20391;-57
2023/12/15 04:07:20;;;;;;;43.58;19.80;;;;;;;5.85;100.00;102865.09;5070984;28;20831;-56
2023/12/15 04:09:46;;;;;;;44.88;20.20;;;;;;;5.84;100.00;102855.16;5061680;28;20060;-57
2023/12/15 04:12:11;;;;;;;45.22;21.25;;;;;;;5.85;100.00;102863.16;5051384;28;20104;-57
2023/12/15 04:14:36;;;;;;;46.17;21.98;;;;;;;5.89;100.00;102869.06;5054087;28;20029;-57
2023/12/15 04:17:02;;;;;;;47.83;21.83;;;;;;;5.87;100.00;102873.91;5052230;28;20029;-56
2023/12/15 04:19:27;;;;;;;45.80;20.67;;;;;;;5.87;100.00;102872.03;5050732;28;20392;-57
2023/12/15 04:21:52;;;;;;;42.28;19.33;;;;;;;5.88;100.00;102886.59;5050816;28;20029;-57
2023/12/15 04:24:18;;;;;;;43.53;20.17;;;;;;;5.86;100.00;102881.34;5062909;28;20449;-56
2023/12/15 04:26:44;;;;;;;44.25;19.73;;;;;;;5.90;100.00;102884.47;5070162;28;20024;-56
2023/12/15 04:29:09;;;;;;;45.72;21.25;;;;;;;5.91;100.00;102886.97;5055275;28;20033;-57
2023/12/15 04:31:34;;;;;;;45.72;21.77;;;;;;;5.92;100.00;102880.44;5050375;28;20043;-56
2023/12/15 04:34:00;;;;;;;50.25;22.50;;;;;;;5.92;100.00;102879.59;5050812;28;20086;-57
2023/12/15 04:36:26;;;;;;;44.33;20.30;;;;;;;5.93;100.00;102890.34;5054089;28;20119;-57
2023/12/15 04:38:52;;;;;;;46.10;22.05;;;;;;;5.98;100.00;102892.44;5059687;28;20409;-57
2023/12/15 04:41:19;;;;;;;50.63;22.30;;;;;;;5.98;100.00;102897.91;5064787;28;20097;-57
2023/12/15 04:43:45;;;;;;;49.22;21.40;;;;;;;6.00;100.00;102898.56;5073458;28;20029;-57
2023/12/15 04:46:10;;;;;;;49.97;21.17;;;;;;;6.01;100.00;102897.50;5062702;28;20033;-57
2023/12/15 04:48:35;;;;;;;50.03;23.38;;;;;;;5.99;100.00;102896.03;5054620;28;20445;-57
2023/12/15 04:51:01;;;;;;;47.80;21.88;;;;;;;5.96;100.00;102908.28;5068313;28;20409;-56
2023/12/15 04:53:26;;;;;;;50.13;21.48;;;;;;;5.97;100.00;102907.22;5061035;28;20381;-56
2023/12/15 04:55:51;;;;;;;47.80;20.83;;;;;;;6.00;100.00;102906.81;5047242;28;20053;-57
2023/12/15 04:58:17;;;;;;;49.25;21.58;;;;;;;6.01;100.00;102907.66;5073977;28;20405;-57
2023/12/15 05:00:42;;;;;;;47.42;21.98;;;;;;;6.00;100.00;102903.25;5064225;28;20045;-57
2023/12/15 05:03:07;;;;;;;44.58;20.27;;;;;;;6.01;100.00;102894.75;5062755;28;20162;-56
2023/12/15 05:05:32;;;;;;;48.85;21.88;;;;;;;5.99;100.00;102896.88;5065961;28;20127;-57
2023/12/15 05:07:58;;;;;;;45.83;21.48;;;;;;;6.03;100.00;102905.53;5053283;28;20036;-56
2023/12/15 05:10:23;;;;;;;49.97;22.30;;;;;;;6.01;100.00;102911.25;5062095;28;20074;-57
2023/12/15 05:12:48;;;;;;;49.58;21.92;;;;;;;5.99;100.00;102907.03;5054395;28;20059;-57
2023/12/15 05:15:14;;;;;;;53.80;22.77;;;;;;;6.01;100.00;102918.63;5063988;28;20020;-57
2023/12/15 05:17:39;;;;;;;50.10;22.27;;;;;;;6.06;100.00;102927.06;5054058;28;20040;-56
2023/12/15 05:20:05;;;;;;;48.10;21.98;;;;;;;6.04;100.00;102929.19;5054779;28;20155;-57
2023/12/15 05:22:30;;;;;;;50.13;22.88;;;;;;;6.08;100.00;102935.94;5054079;28;20466;-57
2023/12/15 05:24:56;;;;;;;51.63;22.67;;;;;;;6.09;100.00;102932.13;5054504;28;20036;-56
2023/12/15 05:27:21;;;;;;;49.28;22.10;;;;;;;6.09;100.00;102934.88;5037745;28;20100;-57
2023/12/15 05:29:46;;;;;;;49.10;22.50;;;;;;;6.10;100.00;102942.03;5071321;28;20071;-57
2023/12/15 05:32:14;;;;;;;52.22;22.75;;;;;;;6.09;100.00;102945.88;5069587;28;20050;-56
2023/12/15 05:34:40;;;;;;;51.70;22.48;;;;;;;6.08;100.00;102952.44;5062874;28;20024;-56
2023/12/15 05:37:06;;;;;;;51.05;22.33;;;;;;;6.11;100.00;102959.38;5067533;28;20040;-56
2023/12/15 05:39:31;;;;;;;53.30;22.50;;;;;;;6.15;100.00;102964.19;5053940;28;20040;-56
2023/12/15 05:41:57;;;;;;;52.50;22.10;;;;;;;6.17;100.00;102972.22;5062038;28;20037;-57
2023/12/15 05:44:22;;;;;;;50.50;22.83;;;;;;;6.17;100.00;102978.56;5033826;28;20473;-57
2023/12/15 05:46:48;;;;;;;51.33;22.75;;;;;;;6.18;100.00;102977.50;5033839;28;20033;-57
2023/12/15 05:49:13;;;;;;;50.05;23.30;;;;;;;6.23;100.00;102974.06;5050014;28;20025;-57
2023/12/15 05:51:38;;;;;;;53.33;23.85;;;;;;;6.21;100.00;102985.28;5059983;28;20041;-57
2023/12/15 05:54:04;;;;;;;51.67;22.52;;;;;;;6.22;100.00;102980.63;5052970;28;20032;-57
2023/12/15 05:56:29;;;;;;;51.92;23.40;;;;;;;6.19;100.00;102975.56;5068855;28;20021;-57
2023/12/15 05:58:56;;;;;;;51.33;23.00;;;;;;;6.23;100.00;102983.16;5053609;28;20059;-56
2023/12/15 06:01:21;;;;;;;54.42;22.10;;;;;;;6.23;100.00;102974.06;5072575;28;20481;-56
2023/12/15 06:03:46;;;;;;;56.03;24.52;;;;;;;6.23;100.00;102969.41;5072487;28;20044;-57
2023/12/15 06:06:12;;;;;;;53.42;24.58;;;;;;;6.23;100.00;102972.16;5054187;28;20040;-57
2023/12/15 06:08:37;;;;;;;54.67;25.63;;;;;;;6.26;100.00;102973.59;5055720;28;20562;-56
2023/12/15 06:11:03;;;;;;;53.33;24.80;;;;;;;6.24;100.00;102965.59;5061461;28;20116;-57
2023/12/15 06:13:28;;;;;;;56.10;24.90;;;;;;;6.25;100.00;102963.69;5053466;28;20083;-56
2023/12/15 06:15:53;;;;;;;54.75;24.33;;;;;;;6.28;100.00;102981.66;5065162;28;20120;-57
2023/12/15 06:18:18;;;;;;;54.00;25.02;;;;;;;6.28;100.00;102976.97;5062746;28;20040;-57
2023/12/15 06:20:44;;;;;;;55.90;24.27;;;;;;;6.26;100.00;102989.28;5057187;28;20029;-57
2023/12/15 06:23:09;;;;;;;53.72;24.23;;;;;;;6.26;100.00;102981.84;5073153;28;20059;-58
2023/12/15 06:25:35;;;;;;;58.60;25.25;;;;;;;6.24;100.00;102987.59;5063402;28;20088;-57
2023/12/15 06:28:00;;;;;;;52.15;26.75;;;;;;;6.22;100.00;102986.97;5050089;28;20428;-57
2023/12/15 06:30:25;;;;;;;57.38;25.08;;;;;;;6.24;100.00;102989.47;5059903;28;20632;-57
2023/12/15 06:32:50;;;;;;;59.45;25.23;;;;;;;6.27;100.00;102993.72;5072795;28;20111;-57
2023/12/15 06:35:17;;;;;;;58.65;25.33;;;;;;;6.26;100.00;103006.59;5063139;28;20029;-57
2023/12/15 06:37:42;;;;;;;60.72;25.63;;;;;;;6.26;100.00;103006.59;5052556;28;20396;-57
2023/12/15 06:40:08;;;;;;;58.55;25.38;;;;;;;6.25;100.00;103010.41;5059600;28;20055;-57
2023/12/15 06:42:33;;;;;;;59.63;25.60;;;;;;;6.28;100.00;103017.38;5054420;28;20087;-57
2023/12/15 06:45:04;;;;;;;53.05;25.05;;;;;;;6.28;100.00;103020.97;5064257;28;20029;-56
2023/12/15 06:47:29;;;;;;;62.25;26.77;;;;;;;6.29;100.00;103014.41;5067235;28;20033;-57
2023/12/15 06:49:54;;;;;;;61.80;26.70;;;;;;;6.31;100.00;103008.66;5072258;28;20450;-57
2023/12/15 06:52:20;;;;;;;56.45;26.25;;;;;;;6.30;100.00;103012.47;5071822;28;20534;-57
2023/12/15 06:54:45;;;;;;;56.65;25.73;;;;;;;6.32;100.00;103019.47;5072034;28;20063;-57
2023/12/15 06:57:10;;;;;;;61.58;27.58;;;;;;;6.29;100.00;103022.66;5054956;28;20108;-58
2023/12/15 06:59:36;;;;;;;53.50;25.10;;;;;;;6.30;100.00;103016.09;5061842;28;20033;-58
2023/12/15 07:02:01;;;;;;;54.13;25.35;;;;;;;6.33;100.00;103020.28;5067934;28;20103;-56
2023/12/15 07:04:27;;;;;;;55.78;26.27;;;;;;;6.34;100.00;103031.06;5072178;28;20040;-57
2023/12/15 07:06:53;;;;;;;55.45;25.27;;;;;;;6.36;100.00;103044.59;5059607;28;20624;-57
2023/12/15 07:09:18;;;;;;;58.65;27.83;;;;;;;6.34;100.00;103050.28;5057821;28;20029;-58
2023/12/15 07:11:44;;;;;;;57.63;26.58;;;;;;;6.34;100.00;103050.28;5060527;28;20025;-58
2023/12/15 07:14:10;;;;;;;59.95;27.80;;;;;;;6.39;100.00;103055.97;5072243;28;20036;-57
2023/12/15 07:16:35;;;;;;;58.35;28.02;;;;;;;6.38;100.00;103053.44;5062255;28;20033;-57
2023/12/15 07:19:00;;;;;;;56.42;27.63;;;;;;;6.36;100.00;103061.91;5066065;28;20021;-57
2023/12/15 07:21:26;;;;;;;58.63;27.42;;;;;;;6.40;100.00;103059.56;5066706;28;20021;-57
2023/12/15 07:23:51;;;;;;;58.45;25.77;;;;;;;6.42;100.00;103056.63;5069265;28;20036;-56
2023/12/15 07:26:17;;;;;;;60.05;26.40;;;;;;;6.44;100.00;103062.69;5069676;28;20040;-56
2023/12/15 07:28:43;;;;;;;56.83;25.95;;;;;;;6.44;100.00;103062.69;5070698;28;20074;-57
2023/12/15 07:31:08;;;;;;;60.28;25.52;;;;;;;6.46;100.00;103068.81;5062517;28;20124;-57
2023/12/15 07:33:33;;;;;;;56.28;25.85;;;;;;;6.42;100.00;103073.09;5070176;28;20068;-56
2023/12/15 07:35:59;;;;;;;52.67;24.58;;;;;;;6.42;100.00;103073.09;5054172;28;20036;-56
2023/12/15 07:38:25;;;;;;;57.53;27.00;;;;;;;6.41;100.00;103080.50;5050864;28;20029;-56
2023/12/15 07:40:54;;;;;;;53.60;26.15;;;;;;;6.43;100.00;103080.25;5066117;28;20051;-56
2023/12/15 07:43:19;;;;;;;55.25;25.67;;;;;;;6.46;100.00;103094.44;5056674;28;20029;-56
2023/12/15 07:45:44;;;;;;;53.90;27.40;;;;;;;6.47;100.00;103089.75;5058940;28;20040;-55
2023/12/15 07:48:10;;;;;;;51.80;25.67;;;;;;;6.48;100.00;103083.19;5047714;28;20037;-56
2023/12/15 07:50:37;;;;;;;55.35;26.80;;;;;;;6.49;100.00;103087.63;5053441;28;20130;-55
2023/12/15 07:53:02;;;;;;;52.28;25.63;;;;;;;6.51;100.00;103094.59;5046895;28;20064;-56
2023/12/15 07:55:27;;;;;;;54.67;26.83;;;;;;;6.50;100.00;103098.41;5048171;28;20465;-54
2023/12/15 07:57:53;;;;;;;57.67;25.50;;;;;;;6.52;100.00;103103.66;5047995;28;20079;-56
2023/12/15 08:00:19;;;;;;;56.47;25.27;;;;;;;6.54;100.00;103107.91;5047841;28;20426;-56
2023/12/15 08:02:44;;;;;;;52.28;25.67;;;;;;;6.56;100.00;103111.25;5046996;28;20028;-56
2023/12/15 08:05:09;;;;;;;50.65;25.05;;;;;;;6.59;100.00;103111.88;5038458;28;20033;-56
2023/12/15 08:07:35;;;;;;;52.70;25.95;;;;;;;6.62;100.00;103108.69;5050728;28;20029;-56
2023/12/15 08:10:00;;;;;;;54.35;26.63;;;;;;;6.62;100.00;103115.03;5049779;28;20104;-56
2023/12/15 08:12:25;;;;;;;58.50;26.95;;;;;;;6.63;100.00;103115.88;5049901;28;20036;-56
2023/12/15 08:14:51;;;;;;;55.47;24.90;;;;;;;6.62;100.00;103119.69;5049392;28;20473;-55
2023/12/15 08:17:16;;;;;;;53.17;26.50;;;;;;;6.66;100.00;103137.44;5048632;28;20047;-56
2023/12/15 08:19:43;;;;;;;51.45;24.40;;;;;;;6.67;100.00;103145.47;5048642;28;20465;-56
2023/12/15 08:22:09;;;;;;;56.35;27.05;;;;;;;6.71;100.00;103145.88;5049001;28;20048;-56
2023/12/15 08:24:35;;;;;;;55.25;26.45;;;;;;;6.70;100.00;103152.44;5048848;28;20029;-56
2023/12/15 08:27:00;;;;;;;52.83;25.80;;;;;;;6.75;100.00;103158.13;5049338;28;20025;-55
2023/12/15 08:29:25;;;;;;;57.75;25.30;;;;;;;6.73;100.00;103154.75;5048913;28;20463;-56
2023/12/15 08:31:50;;;;;;;54.53;25.92;;;;;;;6.77;100.00;103155.13;5048797;28;20048;-57
2023/12/15 08:34:16;;;;;;;56.60;26.05;;;;;;;6.75;100.00;103165.50;5048792;28;20082;-56
2023/12/15 08:36:43;;;;;;;54.20;24.95;;;;;;;6.75;100.00;103165.50;5050585;28;20033;-56
2023/12/15 08:39:08;;;;;;;54.45;25.42;;;;;;;6.75;100.00;103174.63;5051147;28;20040;-56
2023/12/15 08:41:34;;;;;;;57.75;26.58;;;;;;;6.78;100.00;103181.59;5050643;28;20032;-56
2023/12/15 08:43:59;;;;;;;56.85;26.33;;;;;;;6.82;100.00;103191.06;5050650;28;20497;-56
2023/12/15 08:46:24;;;;;;;56.53;26.38;;;;;;;6.81;100.00;103195.72;5050608;28;20029;-55
2023/12/15 08:48:51;;;;;;;56.25;25.77;;;;;;;6.84;100.00;103192.53;5050867;28;20445;-56
2023/12/15 08:51:16;;;;;;;54.97;26.05;;;;;;;6.84;100.00;103205.44;5050641;28;20037;-56
2023/12/15 08:53:42;;;;;;;56.13;26.13;;;;;;;6.85;100.00;103207.97;5050882;28;20037;-56
2023/12/15 08:56:07;;;;;;;62.90;29.83;;;;;;;6.88;100.00;103212.19;5050470;28;20412;-56
2023/12/15 08:58:33;;;;;;;59.85;27.38;;;;;;;6.90;100.00;103215.53;5050523;28;20029;-55
2023/12/15 09:00:58;;;;;;;53.42;26.80;;;;;;;6.93;100.00;103215.09;5050444;28;20091;-56
2023/12/15 09:03:23;;;;;;;54.22;26.75;;;;;;;6.93;100.00;103215.09;5050471;28;20333;-56
2023/12/15 09:05:49;;;;;;;53.50;25.08;;;;;;;6.94;100.00;103211.28;5050556;28;20025;-56
2023/12/15 09:08:14;;;;;;;57.15;27.83;;;;;;;6.98;100.00;103212.53;5050443;28;20421;-56
2023/12/15 09:10:43;;;;;;;55.00;25.35;;;;;;;6.99;100.00;103211.44;5050440;28;20033;-56
2023/12/15 09:13:09;;;;;;;52.30;25.58;;;;;;;6.99;100.00;103218.88;5050431;28;20021;-56
2023/12/15 09:15:35;;;;;;;52.80;24.05;;;;;;;7.00;100.00;103217.81;5050215;28;20025;-56
2023/12/15 09:18:00;;;;;;;51.53;25.00;;;;;;;6.97;100.00;103213.59;5050242;28;20535;-56
2023/12/15 09:20:26;;;;;;;53.47;25.33;;;;;;;6.95;100.00;103220.38;5050383;28;20396;-56
2023/12/15 09:22:54;;;;;;;52.42;26.83;;;;;;;6.98;100.00;103236.47;5051578;28;20025;-56
2023/12/15 09:25:19;;;;;;;53.15;26.92;;;;;;;6.99;100.00;103238.97;5054222;28;20021;-56
2023/12/15 09:27:45;;;;;;;54.85;26.48;;;;;;;7.00;100.00;103243.41;5053896;28;20112;-57
2023/12/15 09:30:10;;;;;;;48.45;24.52;;;;;;;7.03;100.00;103248.50;5053821;28;20036;-56
2023/12/15 09:32:35;;;;;;;53.85;23.92;;;;;;;7.10;100.00;103253.09;5053938;28;20029;-56
2023/12/15 09:35:01;;;;;;;54.83;24.42;;;;;;;7.12;100.00;103250.97;5054016;28;20032;-56
2023/12/15 09:37:26;;;;;;;49.08;24.65;;;;;;;7.15;100.00;103267.03;5054089;28;20431;-55
2023/12/15 09:39:51;;;;;;;48.60;24.13;;;;;;;7.14;100.00;103268.94;5053888;28;20025;-56
2023/12/15 09:42:16;;;;;;;54.33;25.10;;;;;;;7.19;100.00;103271.00;5053840;28;20461;-56
2023/12/15 09:44:42;;;;;;;51.50;23.45;;;;;;;7.20;100.00;103280.97;5053796;28;20032;-56
2023/12/15 09:47:09;;;;;;;51.53;24.05;;;;;;;7.22;100.00;103289.03;5053986;28;20028;-56
2023/12/15 09:49:35;;;;;;;48.47;23.17;;;;;;;7.22;100.00;103300.88;5054021;28;20400;-56
2023/12/15 09:52:04;;;;;;;51.72;24.25;;;;;;;7.24;100.00;103301.50;5053893;28;20040;-56
2023/12/15 09:54:31;;;;;;;52.67;26.08;;;;;;;7.28;100.00;103308.22;5053707;28;20049;-55
2023/12/15 09:56:56;;;;;;;51.80;22.98;;;;;;;7.29;100.00;103314.59;5053766;28;20040;-54
2023/12/15 09:59:22;;;;;;;50.40;21.92;;;;;;;7.30;100.00;103319.88;5053966;28;20025;-55
2023/12/15 10:01:47;;;;;;;49.92;23.30;;;;;;;7.32;100.00;103308.66;5053787;28;20469;-55
2023/12/15 10:04:13;;;;;;;48.90;22.00;;;;;;;7.33;100.00;103316.69;5053799;28;20056;-55
2023/12/15 10:06:38;;;;;;;44.17;21.90;;;;;;;7.39;100.00;103320.44;5053345;28;20514;-55
2023/12/15 10:09:16;;;;;;;51.97;23.10;;;;;;;7.43;100.00;103321.66;5053423;28;20094;-55
2023/12/15 10:11:44;;;;;;;48.67;21.90;;;;;;;7.44;100.00;103323.34;5053423;28;20032;-54
2023/12/15 10:14:11;;;;;;;45.33;20.77;;;;;;;7.48;100.00;103334.75;5053425;28;20052;-55
2023/12/15 10:16:37;;;;;;;43.63;20.38;;;;;;;7.45;100.00;103338.81;5053503;28;20120;-54
2023/12/15 10:19:07;;;;;;;44.88;20.80;;;;;;;7.44;100.00;103339.88;5053666;28;20030;-55
2023/12/15 10:21:33;;;;;;;41.60;20.02;;;;;;;7.43;100.00;103348.38;5052105;28;20167;-55
2023/12/15 10:24:16;;;;;;;45.83;20.88;;;;;;;7.43;100.00;103348.38;5053217;28;20044;-55
2023/12/15 10:26:41;;;;;;;40.95;19.65;;;;;;;7.46;100.00;103343.25;5053203;28;20027;-55
2023/12/15 10:29:07;;;;;;;44.35;21.30;;;;;;;7.50;100.00;103346.41;5053005;28;20021;-55
2023/12/15 10:31:33;;;;;;;42.95;20.80;;;;;;;7.51;100.00;103348.09;5053142;28;20043;-55
2023/12/15 10:33:58;;;;;;;43.38;20.10;;;;;;;7.55;100.00;103356.75;5052237;28;20036;-55
2023/12/15 10:36:23;;;;;;;46.83;22.20;;;;;;;7.56;100.00;103359.28;5052697;28;20032;-55
2023/12/15 10:38:49;;;;;;;47.75;22.33;;;;;;;7.56;100.00;103362.03;5052983;28;20018;-54
2023/12/15 10:41:15;;;;;;;51.25;23.65;;;;;;;7.58;100.00;103376.44;5053036;28;20044;-55
2023/12/15 10:43:42;;;;;;;49.72;22.67;;;;;;;7.57;100.00;103380.25;5052985;28;20056;-55
2023/12/15 10:46:09;;;;;;;52.17;23.73;;;;;;;7.58;100.00;103379.19;5052805;28;20029;-54
2023/12/15 10:48:35;;;;;;;48.88;23.08;;;;;;;7.59;100.00;103383.63;5052583;28;20033;-55
2023/12/15 10:51:02;;;;;;;47.60;22.00;;;;;;;7.61;100.00;103392.53;5052364;28;20036;-55
2023/12/15 10:53:29;;;;;;;40.88;18.50;;;;;;;7.62;100.00;103391.47;5052533;28;20558;-55
2023/12/15 10:55:54;;;;;;;40.63;17.42;;;;;;;7.64;100.00;103394.84;5052316;28;20481;-56
2023/12/15 10:58:19;;;;;;;39.65;18.75;;;;;;;7.70;100.00;103393.06;5052440;28;20107;-56
2023/12/15 11:00:46;;;;;;;42.20;18.83;;;;;;;7.73;100.00;103408.34;5052223;28;20492;-55
2023/12/15 11:03:12;;;;;;;42.22;22.65;;;;;;;7.75;100.00;103414.44;5052310;28;20025;-56